Time;durP1;ratioP1;P1;durP2;ratioP2;P2;SDS_P1;SDS_P2;PMS_P1;PMS_P2;Temp;Humidity;BMP_temperature;BMP_pressure;BME280_temperature;BME280_humidity;BME280_pressure;Samples;Min_cycle;Max_cycle;Signal;HPM_P1;HPM_P2
2022/12/20 00:00:08;;;;;;;1.20;0.50;;;17.60;43.20;;;;;;6251784;28;20037;-78
2022/12/20 00:03:09;;;;;;;2.00;0.38;;;17.60;43.10;;;;;;6219043;28;20033;-78
2022/12/20 00:06:12;;;;;;;0.63;0.40;;;17.60;43.10;;;;;;6225700;28;20038;-78
2022/12/20 00:09:13;;;;;;;0.30;0.20;;;17.60;42.80;;;;;;6242875;28;20038;-79
2022/12/20 00:12:13;;;;;;;0.28;0.28;;;17.70;42.60;;;;;;6207918;28;20045;-78
2022/12/20 00:15:14;;;;;;;0.40;0.30;;;17.70;42.50;;;;;;6240096;28;20053;-78
2022/12/20 00:18:51;;;;;;;0.52;0.35;;;17.80;42.40;;;;;;6248663;28;20585;-78
2022/12/20 00:21:52;;;;;;;0.40;0.20;;;17.80;42.40;;;;;;6208674;28;20168;-77
2022/12/20 00:24:53;;;;;;;0.45;0.40;;;17.80;42.30;;;;;;6221578;28;20367;-77
2022/12/20 00:27:54;;;;;;;0.60;0.35;;;17.80;42.30;;;;;;6219434;28;20042;-77
2022/12/20 00:30:55;;;;;;;0.22;0.15;;;17.80;42.40;;;;;;6216687;28;20034;-78
2022/12/20 00:33:58;;;;;;;2.67;0.50;;;17.70;42.40;;;;;;6217526;28;20066;-77
2022/12/20 00:36:59;;;;;;;0.85;0.68;;;17.70;42.50;;;;;;6231325;28;20041;-78
2022/12/20 00:40:02;;;;;;;1.65;0.85;;;17.70;42.30;;;;;;6215504;28;20054;-77
2022/12/20 00:43:03;;;;;;;0.82;0.70;;;17.60;42.30;;;;;;6221197;28;20072;-77
2022/12/20 00:46:06;;;;;;;3.45;1.55;;;17.60;42.50;;;;;;6219558;28;20543;-76
2022/12/20 00:49:06;;;;;;;2.95;1.10;;;17.50;42.60;;;;;;6219676;28;20096;-78
2022/12/20 00:52:07;;;;;;;10.63;3.55;;;17.40;42.60;;;;;;6236650;28;20157;-77
2022/12/20 00:55:08;;;;;;;4.90;2.15;;;17.20;42.50;;;;;;6220832;28;20124;-78
2022/12/20 00:58:09;;;;;;;9.02;3.53;;;16.90;42.40;;;;;;6233276;28;20041;-78
2022/12/20 01:01:26;;;;;;;7.88;3.95;;;16.60;42.70;;;;;;6218680;28;20467;-77
2022/12/20 01:04:27;;;;;;;7.70;3.45;;;16.30;43.10;;;;;;6238146;28;20664;-77
2022/12/20 01:07:28;;;;;;;6.57;2.40;;;16.00;43.40;;;;;;6258732;28;20136;-78
2022/12/20 01:10:31;;;;;;;7.80;3.50;;;15.70;43.90;;;;;;6243265;28;20487;-77
2022/12/20 01:13:35;;;;;;;10.82;3.70;;;15.40;44.30;;;;;;6257663;28;20470;-77
2022/12/20 01:16:40;;;;;;;9.38;3.97;;;15.20;44.40;;;;;;6258155;28;20591;-78
2022/12/20 01:19:41;;;;;;;6.45;3.17;;;14.90;44.70;;;;;;6257988;28;20095;-77
2022/12/20 01:22:42;;;;;;;11.18;4.53;;;14.70;45.00;;;;;;6243894;28;20034;-77
2022/12/20 01:25:43;;;;;;;8.80;3.33;;;14.40;45.30;;;;;;6237950;28;20664;-77
2022/12/20 01:28:46;;;;;;;9.88;4.00;;;14.10;45.70;;;;;;6243000;28;20364;-78
2022/12/20 01:31:47;;;;;;;14.10;3.65;;;13.80;46.00;;;;;;6212824;28;20070;-77
2022/12/20 01:34:47;;;;;;;9.38;3.78;;;13.50;46.40;;;;;;6241863;28;20057;-77
2022/12/20 01:37:48;;;;;;;12.18;4.40;;;13.30;47.00;;;;;;6260130;28;20099;-77
2022/12/20 01:40:49;;;;;;;12.93;3.55;;;13.10;47.30;;;;;;6257562;28;20084;-77
2022/12/20 01:43:52;;;;;;;9.90;3.78;;;12.90;47.80;;;;;;6258409;28;20037;-77
2022/12/20 01:46:53;;;;;;;8.82;3.40;;;12.70;48.10;;;;;;6221086;28;20072;-77
2022/12/20 01:49:57;;;;;;;8.30;3.83;;;12.60;48.50;;;;;;6217146;28;20042;-77
2022/12/20 01:53:01;;;;;;;8.85;3.60;;;12.50;48.80;;;;;;6229449;28;20045;-77
2022/12/20 01:56:05;;;;;;;11.85;3.60;;;12.40;49.10;;;;;;6218084;28;20117;-78
2022/12/20 01:59:07;;;;;;;5.45;2.92;;;12.20;49.30;;;;;;6218133;28;20038;-77
2022/12/20 02:02:11;;;;;;;11.40;3.63;;;12.20;49.50;;;;;;6218876;28;20049;-77
2022/12/20 02:05:13;;;;;;;6.25;3.88;;;12.10;49.50;;;;;;6224428;28;20611;-78
2022/12/20 02:08:18;;;;;;;7.78;3.25;;;12.00;49.60;;;;;;6237972;28;20065;-78
2022/12/20 02:11:37;;;;;;;9.15;3.47;;;12.00;49.70;;;;;;6217956;28;20034;-77
2022/12/20 02:15:12;;;;;;;7.43;3.10;;;12.00;49.90;;;;;;6257523;28;20038;-78
2022/12/20 02:18:31;;;;;;;7.15;3.40;;;12.00;49.90;;;;;;6216758;28;20041;-77
2022/12/20 02:22:03;;;;;;;7.25;2.70;;;12.00;50.00;;;;;;6216325;28;20033;-78
2022/12/20 02:25:41;;;;;;;9.75;3.15;;;12.10;50.40;;;;;;6191833;28;20104;-78
2022/12/20 02:28:48;;;;;;;8.85;3.53;;;12.10;50.30;;;;;;6215272;28;20042;-77
2022/12/20 02:32:01;;;;;;;6.68;2.95;;;12.20;50.20;;;;;;6200635;28;20048;-78
2022/12/20 02:35:04;;;;;;;4.70;2.92;;;12.20;50.20;;;;;;6200382;28;20045;-77
2022/12/20 02:38:28;;;;;;;5.97;3.03;;;12.20;50.00;;;;;;6201534;28;20030;-77
2022/12/20 02:41:38;;;;;;;8.13;3.00;;;12.20;50.10;;;;;;6214373;28;20050;-77
2022/12/20 02:48:10;;;;;;;4.68;2.50;;;12.10;50.10;;;;;;6191964;28;20069;-77
2022/12/20 02:51:14;;;;;;;6.15;3.08;;;12.10;50.30;;;;;;6214203;28;20046;-78
2022/12/20 02:54:16;;;;;;;5.65;2.80;;;12.10;50.50;;;;;;6201087;28;20049;-76
2022/12/20 02:57:27;;;;;;;4.43;1.50;;;12.10;50.60;;;;;;6199887;28;20030;-76
2022/12/20 03:00:36;;;;;;;3.63;2.10;;;12.20;50.70;;;;;;6190221;28;20034;-76
2022/12/20 03:03:37;;;;;;;3.97;2.10;;;12.30;50.70;;;;;;6228408;28;20037;-76
2022/12/20 03:06:39;;;;;;;3.90;2.20;;;12.40;50.40;;;;;;6242154;28;20072;-77
2022/12/20 03:09:42;;;;;;;5.07;2.30;;;12.50;50.20;;;;;;6239890;28;20079;-79
2022/12/20 03:12:43;;;;;;;8.27;2.42;;;12.50;50.10;;;;;;6240322;28;20116;-76
2022/12/20 03:15:44;;;;;;;6.70;2.53;;;12.50;50.00;;;;;;6191365;28;20068;-77
2022/12/20 03:18:45;;;;;;;5.70;2.47;;;12.50;50.00;;;;;;6229961;28;20049;-77
2022/12/20 03:21:46;;;;;;;11.57;3.13;;;12.50;49.90;;;;;;6242396;28;20041;-77
2022/12/20 03:24:47;;;;;;;4.88;2.72;;;12.40;49.90;;;;;;6217575;28;20218;-77
2022/12/20 03:27:48;;;;;;;5.90;2.58;;;12.40;49.90;;;;;;6219397;28;20046;-77
2022/12/20 03:30:51;;;;;;;8.13;2.75;;;12.40;50.00;;;;;;6204259;28;20060;-78
2022/12/20 03:33:51;;;;;;;4.43;2.45;;;12.30;49.90;;;;;;6243847;28;20725;-78
2022/12/20 03:36:52;;;;;;;6.53;2.78;;;12.30;50.00;;;;;;6236929;28;20079;-78
2022/12/20 03:39:55;;;;;;;5.40;2.55;;;12.20;50.20;;;;;;6244002;28;20049;-78
2022/12/20 03:42:56;;;;;;;8.88;2.38;;;12.20;50.30;;;;;;6242570;28;20421;-78
2022/12/20 03:45:58;;;;;;;5.45;2.78;;;12.30;50.40;;;;;;6243705;28;20111;-78
2022/12/20 03:49:00;;;;;;;10.32;3.30;;;12.30;50.30;;;;;;6241831;28;20129;-77
2022/12/20 03:52:03;;;;;;;8.48;3.03;;;12.20;50.80;;;;;;6225767;28;20030;-77
2022/12/20 03:55:04;;;;;;;5.38;2.58;;;12.10;50.20;;;;;;6240968;28;20038;-77
2022/12/20 03:58:14;;;;;;;5.22;2.33;;;12.10;50.40;;;;;;6223885;28;20069;-77
2022/12/20 04:01:24;;;;;;;4.65;2.63;;;12.00;50.40;;;;;;6257559;28;20106;-78
2022/12/20 04:04:26;;;;;;;12.40;2.53;;;12.00;50.60;;;;;;6247034;28;20034;-77
2022/12/20 04:07:27;;;;;;;7.93;2.60;;;12.10;50.70;;;;;;6239629;28;20052;-78
2022/12/20 04:10:29;;;;;;;7.03;2.38;;;12.10;50.80;;;;;;6247332;28;20044;-78
2022/12/20 04:13:30;;;;;;;7.82;2.55;;;12.10;50.80;;;;;;6256178;28;20068;-77
2022/12/20 04:16:32;;;;;;;6.72;2.78;;;12.10;50.70;;;;;;6242414;28;20475;-78
2022/12/20 04:19:34;;;;;;;8.68;3.08;;;12.10;50.70;;;;;;6244439;28;20033;-77
2022/12/20 04:22:37;;;;;;;4.72;2.30;;;12.20;50.70;;;;;;6246800;28;20033;-77
2022/12/20 04:25:39;;;;;;;5.25;2.40;;;12.10;50.70;;;;;;6263245;28;20037;-77
2022/12/20 04:28:41;;;;;;;4.88;2.00;;;12.00;50.90;;;;;;6248089;28;20038;-77
2022/12/20 04:31:44;;;;;;;6.40;2.25;;;11.90;51.00;;;;;;6246733;28;20037;-77
2022/12/20 04:34:46;;;;;;;3.55;2.33;;;12.00;51.20;;;;;;6246118;28;20467;-77
2022/12/20 04:37:47;;;;;;;5.35;2.38;;;12.00;51.20;;;;;;6228612;28;20042;-78
2022/12/20 04:40:50;;;;;;;6.82;2.25;;;12.00;51.10;;;;;;6229860;28;20048;-77
2022/12/20 04:43:54;;;;;;;9.63;2.60;;;12.00;51.10;;;;;;6263193;28;20044;-77
2022/12/20 04:46:56;;;;;;;5.50;2.30;;;12.00;51.10;;;;;;6262918;28;20095;-77
2022/12/20 04:49:58;;;;;;;4.50;2.47;;;12.00;51.10;;;;;;6246333;28;20095;-77
2022/12/20 04:56:23;;;;;;;4.45;2.35;;;12.00;51.10;;;;;;6242613;28;20442;-78
2022/12/20 04:59:24;;;;;;;5.90;2.45;;;12.10;51.20;;;;;;6241539;28;20386;-77
2022/12/20 05:02:27;;;;;;;5.97;2.67;;;12.10;51.00;;;;;;6220204;28;20419;-78
2022/12/20 05:05:34;;;;;;;6.80;3.13;;;12.10;50.90;;;;;;6242593;28;20459;-78
2022/12/20 05:08:36;;;;;;;5.85;2.75;;;12.10;50.90;;;;;;6245021;28;20087;-78
2022/12/20 05:11:37;;;;;;;8.48;2.90;;;12.00;51.00;;;;;;6244117;28;20042;-78
2022/12/20 05:14:41;;;;;;;6.20;2.50;;;12.00;51.10;;;;;;6229001;28;20033;-78
2022/12/20 05:17:44;;;;;;;6.45;2.75;;;12.00;51.10;;;;;;6260644;28;20133;-78
2022/12/20 05:20:46;;;;;;;5.60;2.28;;;12.00;51.10;;;;;;6220345;28;20105;-76
2022/12/20 05:27:17;;;;;;;7.18;3.00;;;12.10;51.10;;;;;;6245168;28;20064;-77
2022/12/20 05:34:40;;;;;;;6.78;3.00;;;12.20;51.10;;;;;;6249193;28;20120;-78
2022/12/20 05:37:41;;;;;;;6.40;2.03;;;12.10;50.90;;;;;;6270632;28;20040;-77
2022/12/20 05:40:50;;;;;;;3.97;2.28;;;12.10;51.00;;;;;;6249775;28;20048;-78
2022/12/20 05:43:51;;;;;;;6.00;2.90;;;12.10;51.00;;;;;;6227747;28;20379;-78
2022/12/20 05:46:52;;;;;;;10.05;3.00;;;12.00;51.00;;;;;;6265017;28;20029;-78
2022/12/20 05:49:59;;;;;;;10.02;2.85;;;12.10;51.00;;;;;;6254615;28;20399;-77
2022/12/20 05:53:03;;;;;;;7.28;2.47;;;12.10;50.90;;;;;;6264032;28;20116;-79
2022/12/20 05:56:04;;;;;;;3.85;2.05;;;12.10;50.90;;;;;;6247334;28;20434;-77
2022/12/20 05:59:09;;;;;;;3.55;1.67;;;12.00;50.90;;;;;;6274697;28;20057;-78
2022/12/20 06:02:11;;;;;;;5.75;2.45;;;12.10;50.90;;;;;;6277811;28;20034;-77
2022/12/20 06:05:12;;;;;;;8.40;2.95;;;12.00;50.80;;;;;;6229007;28;20468;-80
2022/12/20 06:08:13;;;;;;;7.07;2.67;;;11.90;50.80;;;;;;6230446;28;20049;-79
2022/12/20 06:11:15;;;;;;;4.20;2.20;;;11.90;51.00;;;;;;6248157;28;20044;-78
2022/12/20 06:14:30;;;;;;;5.03;2.53;;;11.80;51.10;;;;;;6247025;28;20107;-77
2022/12/20 06:17:31;;;;;;;3.22;1.80;;;11.80;51.10;;;;;;6247733;28;20419;-77
2022/12/20 06:20:34;;;;;;;4.38;2.22;;;11.80;51.10;;;;;;6230990;28;20383;-77
2022/12/20 06:23:36;;;;;;;3.47;2.10;;;11.80;51.20;;;;;;6264440;28;20033;-78
2022/12/20 06:26:41;;;;;;;4.95;2.25;;;11.70;51.20;;;;;;6263977;28;20037;-78
2022/12/20 06:29:50;;;;;;;5.82;2.20;;;11.70;51.30;;;;;;6247753;28;20064;-78
2022/12/20 06:32:51;;;;;;;8.10;2.22;;;11.70;51.50;;;;;;6264667;28;20415;-78
2022/12/20 06:35:52;;;;;;;4.40;1.80;;;11.70;51.60;;;;;;6247945;28;20044;-78
2022/12/20 06:38:56;;;;;;;4.05;2.05;;;11.70;51.60;;;;;;6263226;28;20037;-77
2022/12/20 06:41:57;;;;;;;4.72;2.05;;;11.70;51.70;;;;;;6263416;28;20356;-78
2022/12/20 06:44:58;;;;;;;7.55;2.45;;;11.80;51.50;;;;;;6263180;28;20107;-78
2022/12/20 06:47:59;;;;;;;4.90;2.20;;;11.70;51.40;;;;;;6247595;28;20117;-78
2022/12/20 06:51:03;;;;;;;13.43;2.88;;;11.70;51.40;;;;;;6260771;28;20038;-77
2022/12/20 06:54:04;;;;;;;5.25;2.00;;;11.70;51.40;;;;;;6246013;28;20025;-77
2022/12/20 06:57:07;;;;;;;5.10;2.20;;;11.70;51.40;;;;;;6244739;28;20033;-77
2022/12/20 07:00:09;;;;;;;4.35;2.05;;;11.70;51.30;;;;;;6260584;28;20107;-78
2022/12/20 07:03:10;;;;;;;6.82;2.20;;;11.70;51.40;;;;;;6261831;28;20049;-78
2022/12/20 07:06:11;;;;;;;10.63;2.00;;;11.70;51.50;;;;;;6247579;28;20056;-77
2022/12/20 07:09:12;;;;;;;11.40;2.70;;;11.70;51.60;;;;;;6247344;28;20470;-77
2022/12/20 07:12:13;;;;;;;5.30;2.50;;;11.70;51.70;;;;;;6247275;28;20095;-77
2022/12/20 07:15:15;;;;;;;3.92;1.75;;;11.70;51.50;;;;;;6246824;28;20128;-77
2022/12/20 07:18:15;;;;;;;8.63;2.30;;;11.70;51.50;;;;;;6246566;28;20043;-78
2022/12/20 07:21:18;;;;;;;4.57;2.15;;;11.70;51.50;;;;;;6245822;28;20538;-78
2022/12/20 07:24:19;;;;;;;8.27;2.85;;;11.70;51.40;;;;;;6247792;28;20099;-77
2022/12/20 07:27:20;;;;;;;4.88;2.25;;;11.70;51.40;;;;;;6247156;28;20038;-77
2022/12/20 07:30:22;;;;;;;8.07;2.63;;;11.80;51.50;;;;;;6247354;28;20052;-77
2022/12/20 07:33:23;;;;;;;5.05;2.33;;;11.80;51.90;;;;;;6248005;28;20030;-78
2022/12/20 07:36:23;;;;;;;6.85;2.13;;;11.80;51.30;;;;;;6246884;28;20478;-78
2022/12/20 07:39:24;;;;;;;7.60;2.90;;;11.80;51.40;;;;;;6243927;28;20080;-78
2022/12/20 07:42:25;;;;;;;4.80;2.35;;;11.90;51.40;;;;;;6245347;28;20049;-78
2022/12/20 07:45:27;;;;;;;4.93;2.42;;;11.90;51.30;;;;;;6228893;28;20115;-78
2022/12/20 07:48:29;;;;;;;9.68;2.50;;;12.00;51.30;;;;;;6244548;28;20080;-77
2022/12/20 07:51:38;;;;;;;6.65;2.63;;;12.00;51.20;;;;;;6242672;28;20363;-78
2022/12/20 07:54:52;;;;;;;5.93;3.00;;;12.00;51.20;;;;;;6242394;28;20041;-77
2022/12/20 07:58:01;;;;;;;6.97;3.03;;;12.10;51.10;;;;;;6245745;28;20099;-77
2022/12/20 08:01:03;;;;;;;6.95;2.33;;;12.10;50.80;;;;;;6285002;28;20041;-78
2022/12/20 08:04:14;;;;;;;26.25;4.25;;;12.10;50.80;;;;;;6251458;28;20117;-78
2022/12/20 08:07:16;;;;;;;8.00;2.55;;;12.00;50.70;;;;;;6261246;28;20461;-79
2022/12/20 08:10:19;;;;;;;8.98;2.75;;;11.90;50.70;;;;;;6246822;28;20037;-77
2022/12/20 08:13:20;;;;;;;5.00;2.50;;;11.90;50.90;;;;;;6262135;28;20029;-78
2022/12/20 08:16:21;;;;;;;15.13;2.88;;;11.80;50.90;;;;;;6246489;28;20045;-78
2022/12/20 08:19:22;;;;;;;5.95;2.53;;;11.80;51.00;;;;;;6244578;28;20083;-78
2022/12/20 08:22:23;;;;;;;4.75;2.50;;;11.80;51.10;;;;;;6261869;28;20040;-77
2022/12/20 08:25:24;;;;;;;21.25;2.83;;;11.80;51.10;;;;;;6248951;28;20175;-77
2022/12/20 08:28:25;;;;;;;8.27;2.92;;;11.80;51.10;;;;;;6245298;28;20125;-77
2022/12/20 08:31:26;;;;;;;7.32;2.95;;;11.70;51.20;;;;;;6261713;28;20037;-78
2022/12/20 08:34:27;;;;;;;9.55;3.13;;;11.80;51.30;;;;;;6265292;28;20129;-77
2022/12/20 08:37:28;;;;;;;4.80;2.70;;;11.70;51.30;;;;;;6286896;28;20095;-77
2022/12/20 08:40:29;;;;;;;7.85;3.05;;;11.80;51.30;;;;;;6270694;28;20096;-77
2022/12/20 08:43:33;;;;;;;7.43;2.67;;;11.80;51.30;;;;;;6284932;28;20041;-78
2022/12/20 08:46:35;;;;;;;6.75;3.20;;;11.90;51.20;;;;;;6268381;28;20044;-78
2022/12/20 08:49:36;;;;;;;9.52;3.40;;;11.90;51.20;;;;;;6260064;28;20371;-77
2022/12/20 08:52:37;;;;;;;11.77;4.13;;;12.00;51.10;;;;;;6244321;28;20088;-78
2022/12/20 08:55:39;;;;;;;10.30;3.08;;;12.10;51.10;;;;;;6226950;28;20382;-78
2022/12/20 08:58:41;;;;;;;7.15;3.63;;;12.10;51.10;;;;;;6252793;28;20113;-78
2022/12/20 09:01:42;;;;;;;6.68;3.30;;;12.10;51.00;;;;;;6294304;28;20045;-78
2022/12/20 09:04:43;;;;;;;6.22;2.72;;;12.20;50.90;;;;;;6285978;28;20048;-77
2022/12/20 09:07:44;;;;;;;9.80;4.03;;;12.20;50.90;;;;;;6248575;28;20545;-78
2022/12/20 09:10:45;;;;;;;10.38;2.80;;;12.30;50.90;;;;;;6254369;28;20105;-79
2022/12/20 09:13:48;;;;;;;7.00;3.28;;;12.40;50.90;;;;;;6251585;28;20033;-79
2022/12/20 09:16:49;;;;;;;9.55;3.05;;;12.50;50.80;;;;;;6264538;28;20100;-79
2022/12/20 09:19:50;;;;;;;7.28;3.25;;;12.60;50.60;;;;;;6253844;28;20382;-79
2022/12/20 09:22:51;;;;;;;5.18;2.78;;;12.60;50.50;;;;;;6272925;28;20090;-79
2022/12/20 09:25:53;;;;;;;6.65;2.88;;;12.70;50.50;;;;;;6243872;28;20045;-78
2022/12/20 09:28:54;;;;;;;8.35;3.70;;;12.80;50.40;;;;;;6247188;28;20113;-77
2022/12/20 09:31:55;;;;;;;8.95;2.70;;;12.80;50.40;;;;;;6249165;28;20044;-79
2022/12/20 09:34:55;;;;;;;9.50;3.28;;;12.90;50.30;;;;;;6268294;28;20110;-78
2022/12/20 09:37:57;;;;;;;9.57;3.03;;;13.00;50.30;;;;;;6245608;28;20037;-78
2022/12/20 09:41:02;;;;;;;4.47;2.22;;;13.20;50.10;;;;;;6247834;28;20454;-78
2022/12/20 09:44:18;;;;;;;7.18;2.60;;;13.40;50.00;;;;;;6231845;28;20041;-77
2022/12/20 09:47:23;;;;;;;6.93;2.22;;;13.60;49.80;;;;;;6239718;28;20379;-79
2022/12/20 09:51:08;;;;;;;8.40;3.03;;;13.80;49.50;;;;;;6261947;28;20447;-79
2022/12/20 09:54:36;;;;;;;5.82;1.90;;;14.00;49.40;;;;;;6173717;28;20120;-79
2022/12/20 09:58:14;;;;;;;5.25;2.28;;;14.20;48.80;;;;;;6192830;28;20039;-78
2022/12/20 10:01:26;;;;;;;7.72;2.25;;;14.30;48.50;;;;;;6176292;28;20121;-77
2022/12/20 10:04:30;;;;;;;4.90;2.38;;;14.40;48.30;;;;;;6200836;28;20132;-78
2022/12/20 10:07:45;;;;;;;16.88;2.30;;;14.60;48.40;;;;;;6193022;28;20038;-79
2022/12/20 10:10:46;;;;;;;7.15;2.67;;;14.80;48.30;;;;;;6191386;28;20042;-78
2022/12/20 10:14:06;;;;;;;3.75;1.65;;;15.00;48.10;;;;;;6187551;28;20069;-79
2022/12/20 10:17:36;;;;;;;5.57;1.85;;;15.20;47.90;;;;;;6191826;28;20049;-78
2022/12/20 10:21:18;;;;;;;5.32;1.77;;;15.50;47.60;;;;;;6174407;28;20034;-78
2022/12/20 10:24:24;;;;;;;3.97;1.42;;;15.80;47.10;;;;;;6169642;28;20050;-78
2022/12/20 10:27:25;;;;;;;7.60;1.30;;;16.20;46.60;;;;;;6189753;28;20038;-78
2022/12/20 10:30:27;;;;;;;4.15;1.58;;;16.40;46.20;;;;;;6231029;28;20482;-78
2022/12/20 10:33:30;;;;;;;1.48;1.10;;;16.80;45.80;;;;;;6258113;28;20475;-78
2022/12/20 10:36:33;;;;;;;2.75;1.02;;;17.10;45.30;;;;;;6257314;28;20116;-78
2022/12/20 10:39:43;;;;;;;1.20;0.70;;;17.30;45.10;;;;;;6217677;28;20029;-79
2022/12/20 10:42:44;;;;;;;1.65;0.77;;;17.60;44.90;;;;;;6234135;28;20038;-77
2022/12/20 10:45:58;;;;;;;5.80;0.80;;;17.80;44.20;;;;;;6218323;28;20060;-78
2022/12/20 10:49:32;;;;;;;4.15;1.40;;;18.10;43.90;;;;;;6217135;28;20092;-77
2022/12/20 10:52:33;;;;;;;2.90;1.00;;;18.40;43.50;;;;;;6232257;28;20575;-78
2022/12/20 10:55:39;;;;;;;4.95;0.82;;;18.80;42.80;;;;;;6217289;28;20037;-79
2022/12/20 10:58:40;;;;;;;1.00;0.50;;;19.10;42.50;;;;;;6218568;28;20037;-79
2022/12/20 11:01:44;;;;;;;2.53;0.77;;;19.30;41.20;;;;;;6220489;28;20041;-79
2022/12/20 11:05:14;;;;;;;4.80;0.75;;;19.50;40.50;;;;;;6224081;28;20487;-79
2022/12/20 11:08:17;;;;;;;2.22;0.55;;;19.60;40.10;;;;;;6240157;28;20045;-79
2022/12/20 11:11:23;;;;;;;2.03;0.40;;;19.60;39.20;;;;;;6263342;28;20039;-78
2022/12/20 11:14:24;;;;;;;3.55;0.60;;;19.70;39.20;;;;;;6259148;28;20485;-79
2022/12/20 11:17:36;;;;;;;2.58;0.70;;;19.80;38.60;;;;;;6256346;28;20051;-79
2022/12/20 11:20:50;;;;;;;0.85;0.57;;;19.80;38.50;;;;;;6262490;28;20018;-78
2022/12/20 11:24:01;;;;;;;3.15;0.45;;;19.80;38.20;;;;;;6249933;28;20093;-80
2022/12/20 11:27:20;;;;;;;3.78;0.70;;;19.80;38.20;;;;;;6267760;28;20040;-79
2022/12/20 11:30:34;;;;;;;6.07;0.93;;;19.90;37.90;;;;;;6254695;28;20033;-78
2022/12/20 11:34:19;;;;;;;2.28;0.50;;;19.90;38.10;;;;;;6247692;28;20117;-79
2022/12/20 11:37:21;;;;;;;2.70;0.63;;;20.00;37.80;;;;;;6250216;28;20037;-79
2022/12/20 11:40:28;;;;;;;1.58;0.90;;;20.00;37.40;;;;;;6241048;28;20030;-78
2022/12/20 11:43:56;;;;;;;2.92;0.70;;;20.00;37.20;;;;;;6247686;28;20033;-79
2022/12/20 11:47:09;;;;;;;0.75;0.50;;;20.00;37.30;;;;;;6241909;28;20101;-78
2022/12/20 11:50:35;;;;;;;9.52;3.38;;;20.10;37.40;;;;;;6251419;28;20478;-79
2022/12/20 11:54:03;;;;;;;1.67;0.85;;;20.10;37.60;;;;;;6275376;28;20124;-78
2022/12/20 11:57:21;;;;;;;1.10;0.70;;;20.10;37.30;;;;;;6220454;28;20038;-78
2022/12/20 12:00:24;;;;;;;1.60;0.50;;;20.00;37.10;;;;;;6226538;28;20041;-78
2022/12/20 12:03:28;;;;;;;0.50;0.50;;;20.00;37.30;;;;;;6224145;28;20057;-79
2022/12/20 12:06:34;;;;;;;1.45;0.50;;;20.10;37.20;;;;;;6260307;28;20041;-81
2022/12/20 12:09:55;;;;;;;0.65;0.40;;;20.10;37.20;;;;;;6244111;28;20127;-79
2022/12/20 12:13:19;;;;;;;0.82;0.38;;;20.10;37.20;;;;;;6241450;28;20311;-79
2022/12/20 12:16:23;;;;;;;2.05;0.43;;;20.10;37.00;;;;;;6220420;28;20065;-79
2022/12/20 12:19:26;;;;;;;2.42;0.52;;;20.10;36.90;;;;;;6237487;28;20034;-77
2022/12/20 12:22:33;;;;;;;2.10;0.98;;;20.10;36.30;;;;;;6228121;28;20049;-79
2022/12/20 12:25:34;;;;;;;2.30;0.60;;;20.10;36.50;;;;;;6234622;28;20038;-79
2022/12/20 12:28:35;;;;;;;1.95;0.65;;;20.10;36.60;;;;;;6240580;28;20056;-78
2022/12/20 12:31:51;;;;;;;0.85;0.73;;;20.10;36.90;;;;;;6241339;28;20417;-79
2022/12/20 12:35:39;;;;;;;3.83;1.08;;;20.10;37.00;;;;;;6252060;28;20091;-78
2022/12/20 12:39:07;;;;;;;0.60;0.30;;;20.10;37.00;;;;;;6202791;28;20121;-78
2022/12/20 12:42:31;;;;;;;2.28;0.60;;;20.10;36.70;;;;;;6203159;28;20034;-78
2022/12/20 12:45:40;;;;;;;2.83;1.00;;;20.20;36.10;;;;;;6218726;28;20034;-79
2022/12/20 12:48:58;;;;;;;4.10;0.60;;;20.20;36.30;;;;;;6218240;28;20037;-79
2022/12/20 12:52:02;;;;;;;0.95;0.60;;;20.30;36.30;;;;;;6201436;28;20375;-80
2022/12/20 12:55:04;;;;;;;1.70;0.35;;;20.30;36.20;;;;;;6202577;28;20049;-79
2022/12/20 12:58:34;;;;;;;0.45;0.35;;;20.40;36.10;;;;;;6216706;28;20554;-78
2022/12/20 13:02:13;;;;;;;2.13;0.68;;;20.40;35.60;;;;;;6152774;28;20495;-78
2022/12/20 13:05:33;;;;;;;11.15;3.80;;;20.40;35.80;;;;;;6168649;28;20045;-80
2022/12/20 13:09:07;;;;;;;2.35;0.68;;;20.50;35.50;;;;;;6135181;28;20050;-79
2022/12/20 13:12:36;;;;;;;1.08;0.70;;;20.50;35.70;;;;;;6130591;28;20147;-79
2022/12/20 13:15:40;;;;;;;8.85;0.95;;;20.50;35.30;;;;;;6122429;28;20039;-79
2022/12/20 13:18:58;;;;;;;2.50;0.77;;;20.50;34.90;;;;;;6122880;28;20391;-78
2022/12/20 13:22:24;;;;;;;4.57;0.80;;;20.50;35.00;;;;;;6122939;28;20046;-79
2022/12/20 13:25:28;;;;;;;3.28;0.43;;;20.50;35.20;;;;;;6119912;28;20127;-78
2022/12/20 13:28:29;;;;;;;0.70;0.35;;;20.50;35.20;;;;;;6121207;28;20054;-78
2022/12/20 13:31:31;;;;;;;2.42;0.50;;;20.50;34.90;;;;;;6121566;28;20762;-79
2022/12/20 13:34:52;;;;;;;1.10;0.45;;;20.50;34.80;;;;;;6091793;29;20119;-78
2022/12/20 13:37:58;;;;;;;2.40;0.30;;;20.50;34.80;;;;;;6205938;28;20040;-79
2022/12/20 13:41:00;;;;;;;1.88;0.63;;;20.50;34.60;;;;;;6229881;28;20049;-78
2022/12/20 13:44:13;;;;;;;0.80;0.60;;;20.50;34.80;;;;;;6244054;28;20042;-79
2022/12/20 13:47:35;;;;;;;0.65;0.35;;;20.50;34.90;;;;;;6244121;28;20049;-79
2022/12/20 13:50:39;;;;;;;1.05;0.30;;;20.50;34.60;;;;;;6258525;28;20025;-79
2022/12/20 13:53:48;;;;;;;3.00;0.60;;;20.50;34.30;;;;;;6244143;28;20041;-78
2022/12/20 13:56:51;;;;;;;1.75;0.50;;;20.40;34.30;;;;;;6244588;28;20106;-79
2022/12/20 13:59:55;;;;;;;0.60;0.32;;;20.40;34.40;;;;;;6229364;28;20117;-81
2022/12/20 14:02:56;;;;;;;3.30;0.70;;;20.40;34.50;;;;;;6227415;28;20522;-79
2022/12/20 14:06:03;;;;;;;3.22;0.60;;;20.50;34.40;;;;;;6242528;28;20037;-79
2022/12/20 14:09:35;;;;;;;0.63;0.30;;;20.50;34.40;;;;;;6244517;28;20120;-81
2022/12/20 14:12:41;;;;;;;5.18;1.55;;;20.50;34.40;;;;;;6251055;28;20029;-78
2022/12/20 14:15:42;;;;;;;2.03;0.98;;;20.50;34.60;;;;;;6218325;28;20137;-78
2022/12/20 14:18:55;;;;;;;2.45;0.85;;;20.50;34.50;;;;;;6219686;28;20038;-80
2022/12/20 14:21:56;;;;;;;1.33;0.90;;;20.40;34.70;;;;;;6219532;28;20320;-78
2022/12/20 14:24:58;;;;;;;3.55;0.82;;;20.40;34.70;;;;;;6219255;28;20053;-78
2022/12/20 14:27:59;;;;;;;6.63;0.50;;;20.40;34.70;;;;;;6218662;28;20046;-78
2022/12/20 14:31:02;;;;;;;0.73;0.55;;;20.40;34.60;;;;;;6238553;28;20047;-78
2022/12/20 14:34:15;;;;;;;0.85;0.45;;;20.30;34.40;;;;;;6261222;28;20033;-78
2022/12/20 14:37:34;;;;;;;0.90;0.60;;;20.30;34.40;;;;;;6247082;28;20147;-79
2022/12/20 14:40:41;;;;;;;0.95;0.68;;;20.30;34.50;;;;;;6257503;28;20478;-79
2022/12/20 14:43:42;;;;;;;1.88;0.85;;;20.40;34.50;;;;;;6242464;28;20052;-78
2022/12/20 14:46:52;;;;;;;0.75;0.65;;;20.30;34.40;;;;;;6259778;28;20474;-79
2022/12/20 14:49:58;;;;;;;0.70;0.40;;;20.30;34.50;;;;;;6235164;28;20041;-79
2022/12/20 14:52:59;;;;;;;1.77;0.50;;;20.30;34.40;;;;;;6220087;28;20030;-80
2022/12/20 14:56:01;;;;;;;1.83;0.40;;;20.30;34.20;;;;;;6222032;28;20034;-78
2022/12/20 14:59:16;;;;;;;0.75;0.55;;;20.30;34.30;;;;;;6222389;28;20135;-78
2022/12/20 15:06:51;;;;;;;0.40;0.40;;;20.20;34.20;;;;;;6209713;28;20495;-79
2022/12/20 15:09:52;;;;;;;2.47;1.45;;;20.20;34.10;;;;;;6221019;28;20034;-79
2022/12/20 15:12:54;;;;;;;1.75;0.50;;;20.30;34.30;;;;;;6188075;28;20038;-79
2022/12/20 15:15:58;;;;;;;0.30;0.30;;;20.20;34.20;;;;;;6220471;28;20058;-79
2022/12/20 15:19:11;;;;;;;3.40;0.40;;;20.20;33.90;;;;;;6204001;28;20034;-78
2022/12/20 15:22:15;;;;;;;1.52;0.63;;;20.20;34.00;;;;;;6216140;28;20475;-79
2022/12/20 15:25:18;;;;;;;2.05;0.50;;;20.20;33.70;;;;;;6209959;28;20042;-79
2022/12/20 15:28:21;;;;;;;1.33;0.40;;;20.20;33.70;;;;;;6193529;28;20050;-78
2022/12/20 15:31:23;;;;;;;2.63;0.60;;;20.20;33.80;;;;;;6214273;28;20092;-79
2022/12/20 15:34:36;;;;;;;0.60;0.57;;;20.20;34.00;;;;;;6228235;28;20132;-78
2022/12/20 15:37:37;;;;;;;1.30;0.50;;;20.20;34.00;;;;;;6217509;28;20152;-79
2022/12/20 15:40:39;;;;;;;3.58;0.57;;;20.20;34.00;;;;;;6221348;28;20034;-80
2022/12/20 15:43:40;;;;;;;2.03;0.50;;;20.20;34.00;;;;;;6247331;28;20049;-79
2022/12/20 15:46:41;;;;;;;6.15;1.80;;;20.20;34.10;;;;;;6247411;28;20037;-79
2022/12/20 15:49:42;;;;;;;0.70;0.55;;;20.20;34.00;;;;;;6233628;28;20057;-79
2022/12/20 15:52:43;;;;;;;0.95;0.80;;;20.20;34.00;;;;;;6221571;28;20042;-78
2022/12/20 15:55:44;;;;;;;1.55;0.73;;;20.10;33.90;;;;;;6223046;28;20042;-79
2022/12/20 15:58:46;;;;;;;1.25;0.70;;;20.10;34.00;;;;;;6237872;28;20049;-79
2022/12/20 16:01:47;;;;;;;2.28;1.00;;;20.10;34.10;;;;;;6241728;28;20035;-79
2022/12/20 16:04:48;;;;;;;4.30;0.70;;;20.00;34.20;;;;;;6229781;28;20037;-80
2022/12/20 16:07:48;;;;;;;1.67;0.50;;;20.00;34.20;;;;;;6221923;28;20076;-79
2022/12/20 16:10:51;;;;;;;1.88;0.80;;;20.00;34.20;;;;;;6236746;28;20140;-80
2022/12/20 16:13:52;;;;;;;0.70;0.60;;;20.00;34.20;;;;;;6254858;28;20040;-79
2022/12/20 16:16:53;;;;;;;4.57;0.75;;;19.90;34.30;;;;;;6265919;28;20098;-80
2022/12/20 16:19:54;;;;;;;1.25;0.77;;;19.90;34.40;;;;;;6266714;28;20030;-79
2022/12/20 16:22:56;;;;;;;2.50;0.75;;;19.90;34.40;;;;;;6265602;28;20045;-79
2022/12/20 16:25:57;;;;;;;1.92;0.80;;;19.90;34.50;;;;;;6265258;28;20036;-79